首页
METAR-TAF:

METAR-TAF

机场 :

扎達爾, 克罗地亚

纬度: 44-06N, 经度: 015-21E, 海拔: 82米

当前天气观测

该预报发布于29分钟前的03:00 UTC
风速4节,风向东南
温度 0°C
湿度 86%
气压 1006 hPa
能见度10公里或以上
少量云层高于5000英尺

METAR: LDZD 120300Z 13004KT 9999 FEW050 M00/M02 Q1006 NOSIG

时间: 04:29 (03:29 UTC)

预报

该预报发布于4小时和4分钟前的23:25 UTC
预报有效从12日的 00点(UTC)到 13日的 00点(UTC)
风速4节,风向东南
能见度10公里或以上
散云层高于3000英尺
短暂存在
从 12日的 15点(UTC)到 13日的 00点(UTC)
多云层高于1400英尺

TAF: LDZD 112325Z 1200/1300 13004KT 9999 SCT030 TX09/1212Z TNM02/1204Z TEMPO 1215/1300 RA BKN014

超过4000个机场的气象观测和天气预报(METAR&TAF报告)。

可查询的气象台以黄色和红色小点在地图上表示。

将鼠标移到小点上方,可查看气象台名称。

然后点击查看天气观测和预报。

如需切换地图:点击带黑十字的绿色按钮放大地图;点击带横线的绿色按钮缩小地图;或者点击绿色箭头查看邻近地区的地图。


METAR-TAF: